sensor_id;sensor_type;location;lat;lon;timestamp;temperature;humidity
78490;DHT22;67776;52.012;4.736;2023-12-20T00:01:16;6.74;94.76
78490;DHT22;67776;52.012;4.736;2023-12-20T00:03:42;6.66;95.11
78490;DHT22;67776;52.012;4.736;2023-12-20T00:06:07;6.67;94.77
78490;DHT22;67776;52.012;4.736;2023-12-20T00:08:32;6.70;94.95
78490;DHT22;67776;52.012;4.736;2023-12-20T00:10:58;6.76;94.16
78490;DHT22;67776;52.012;4.736;2023-12-20T00:13:23;6.77;94.37
78490;DHT22;67776;52.012;4.736;2023-12-20T00:15:48;6.85;93.73
78490;DHT22;67776;52.012;4.736;2023-12-20T00:18:14;6.83;93.95
78490;DHT22;67776;52.012;4.736;2023-12-20T00:20:39;6.83;94.44
78490;DHT22;67776;52.012;4.736;2023-12-20T00:23:04;6.83;94.96
78490;DHT22;67776;52.012;4.736;2023-12-20T00:25:30;6.85;94.42
78490;DHT22;67776;52.012;4.736;2023-12-20T00:27:55;6.87;94.57
78490;DHT22;67776;52.012;4.736;2023-12-20T00:30:20;6.84;95.17
78490;DHT22;67776;52.012;4.736;2023-12-20T00:32:46;6.84;95.10
78490;DHT22;67776;52.012;4.736;2023-12-20T00:35:15;6.87;95.27
78490;DHT22;67776;52.012;4.736;2023-12-20T00:37:44;6.92;94.55
78490;DHT22;67776;52.012;4.736;2023-12-20T00:40:10;6.85;95.74
78490;DHT22;67776;52.012;4.736;2023-12-20T00:42:35;6.85;94.99
78490;DHT22;67776;52.012;4.736;2023-12-20T00:45:01;6.84;95.00
78490;DHT22;67776;52.012;4.736;2023-12-20T00:47:27;6.91;94.44
78490;DHT22;67776;52.012;4.736;2023-12-20T00:49:53;6.92;94.61
78490;DHT22;67776;52.012;4.736;2023-12-20T00:52:18;6.87;94.86
78490;DHT22;67776;52.012;4.736;2023-12-20T00:54:44;6.92;94.13
78490;DHT22;67776;52.012;4.736;2023-12-20T00:57:10;6.92;94.81
78490;DHT22;67776;52.012;4.736;2023-12-20T00:59:35;7.04;94.08
78490;DHT22;67776;52.012;4.736;2023-12-20T01:02:01;7.02;94.07
78490;DHT22;67776;52.012;4.736;2023-12-20T01:04:26;7.11;93.61
78490;DHT22;67776;52.012;4.736;2023-12-20T01:06:52;7.04;94.81
78490;DHT22;67776;52.012;4.736;2023-12-20T01:09:18;7.08;94.00
78490;DHT22;67776;52.012;4.736;2023-12-20T01:11:44;7.12;94.31
78490;DHT22;67776;52.012;4.736;2023-12-20T01:14:09;7.16;93.65
78490;DHT22;67776;52.012;4.736;2023-12-20T01:16:34;7.11;93.53
78490;DHT22;67776;52.012;4.736;2023-12-20T01:19:00;7.18;93.23
78490;DHT22;67776;52.012;4.736;2023-12-20T01:21:25;7.15;93.90
78490;DHT22;67776;52.012;4.736;2023-12-20T01:23:50;7.15;93.36
78490;DHT22;67776;52.012;4.736;2023-12-20T01:26:16;7.23;92.82
78490;DHT22;67776;52.012;4.736;2023-12-20T01:28:42;7.19;93.03
78490;DHT22;67776;52.012;4.736;2023-12-20T01:31:08;7.15;93.10
78490;DHT22;67776;52.012;4.736;2023-12-20T01:33:33;7.18;93.43
78490;DHT22;67776;52.012;4.736;2023-12-20T01:35:58;7.23;92.48
78490;DHT22;67776;52.012;4.736;2023-12-20T01:38:24;7.28;92.47
78490;DHT22;67776;52.012;4.736;2023-12-20T01:40:49;7.32;92.08
78490;DHT22;67776;52.012;4.736;2023-12-20T01:43:15;7.26;93.34
78490;DHT22;67776;52.012;4.736;2023-12-20T01:45:40;7.26;93.14
78490;DHT22;67776;52.012;4.736;2023-12-20T01:48:07;7.46;91.54
78490;DHT22;67776;52.012;4.736;2023-12-20T01:50:35;7.45;91.99
78490;DHT22;67776;52.012;4.736;2023-12-20T01:53:01;7.43;92.49
78490;DHT22;67776;52.012;4.736;2023-12-20T01:55:29;7.39;92.64
78490;DHT22;67776;52.012;4.736;2023-12-20T01:57:55;7.33;93.11
78490;DHT22;67776;52.012;4.736;2023-12-20T02:00:22;7.33;93.02
78490;DHT22;67776;52.012;4.736;2023-12-20T02:02:50;7.42;92.62
78490;DHT22;67776;52.012;4.736;2023-12-20T02:05:17;7.42;92.52
78490;DHT22;67776;52.012;4.736;2023-12-20T02:07:43;7.42;92.35
78490;DHT22;67776;52.012;4.736;2023-12-20T02:10:08;7.47;91.88
78490;DHT22;67776;52.012;4.736;2023-12-20T02:12:33;7.45;91.95
78490;DHT22;67776;52.012;4.736;2023-12-20T02:14:59;7.39;91.99
78490;DHT22;67776;52.012;4.736;2023-12-20T02:17:25;7.36;93.13
78490;DHT22;67776;52.012;4.736;2023-12-20T02:19:50;7.49;91.79
78490;DHT22;67776;52.012;4.736;2023-12-20T02:22:16;7.49;92.24
78490;DHT22;67776;52.012;4.736;2023-12-20T02:24:41;7.50;92.38
78490;DHT22;67776;52.012;4.736;2023-12-20T02:27:07;7.55;91.67
78490;DHT22;67776;52.012;4.736;2023-12-20T02:29:34;7.60;91.34
78490;DHT22;67776;52.012;4.736;2023-12-20T02:31:59;7.60;91.48
78490;DHT22;67776;52.012;4.736;2023-12-20T02:34:25;7.66;91.31
78490;DHT22;67776;52.012;4.736;2023-12-20T02:36:50;7.60;91.80
78490;DHT22;67776;52.012;4.736;2023-12-20T02:39:16;7.62;91.54
78490;DHT22;67776;52.012;4.736;2023-12-20T02:41:41;7.53;92.69
78490;DHT22;67776;52.012;4.736;2023-12-20T02:44:14;7.55;91.49
78490;DHT22;67776;52.012;4.736;2023-12-20T02:46:39;7.46;92.20
78490;DHT22;67776;52.012;4.736;2023-12-20T02:49:06;7.42;92.20
78490;DHT22;67776;52.012;4.736;2023-12-20T02:51:31;7.39;92.45
78490;DHT22;67776;52.012;4.736;2023-12-20T02:53:56;7.43;91.53
78490;DHT22;67776;52.012;4.736;2023-12-20T02:56:22;7.50;90.86
78490;DHT22;67776;52.012;4.736;2023-12-20T02:58:47;7.52;90.50
78490;DHT22;67776;52.012;4.736;2023-12-20T03:01:12;7.45;91.71
78490;DHT22;67776;52.012;4.736;2023-12-20T03:03:37;7.43;91.07
78490;DHT22;67776;52.012;4.736;2023-12-20T03:06:03;7.52;90.79
78490;DHT22;67776;52.012;4.736;2023-12-20T03:08:28;7.50;91.41
78490;DHT22;67776;52.012;4.736;2023-12-20T03:10:54;7.53;90.95
78490;DHT22;67776;52.012;4.736;2023-12-20T03:13:19;7.59;90.32
78490;DHT22;67776;52.012;4.736;2023-12-20T03:15:45;7.60;90.57
78490;DHT22;67776;52.012;4.736;2023-12-20T03:18:11;7.59;91.04
78490;DHT22;67776;52.012;4.736;2023-12-20T03:20:36;7.53;91.44
78490;DHT22;67776;52.012;4.736;2023-12-20T03:23:01;7.57;91.23
78490;DHT22;67776;52.012;4.736;2023-12-20T03:25:27;7.53;91.83
78490;DHT22;67776;52.012;4.736;2023-12-20T03:27:52;7.49;91.62
78490;DHT22;67776;52.012;4.736;2023-12-20T03:30:18;7.50;91.77
78490;DHT22;67776;52.012;4.736;2023-12-20T03:32:44;7.55;90.79
78490;DHT22;67776;52.012;4.736;2023-12-20T03:35:09;7.55;91.03
78490;DHT22;67776;52.012;4.736;2023-12-20T03:37:35;7.53;91.40
78490;DHT22;67776;52.012;4.736;2023-12-20T03:40:00;7.50;90.96
78490;DHT22;67776;52.012;4.736;2023-12-20T03:42:26;7.59;90.42
78490;DHT22;67776;52.012;4.736;2023-12-20T03:44:51;7.59;89.90
78490;DHT22;67776;52.012;4.736;2023-12-20T03:47:16;7.60;90.03
78490;DHT22;67776;52.012;4.736;2023-12-20T03:49:42;7.60;90.11
78490;DHT22;67776;52.012;4.736;2023-12-20T03:52:07;7.55;90.08
78490;DHT22;67776;52.012;4.736;2023-12-20T03:54:34;7.56;90.19
78490;DHT22;67776;52.012;4.736;2023-12-20T03:57:00;7.57;89.65
78490;DHT22;67776;52.012;4.736;2023-12-20T03:59:25;7.55;90.13
78490;DHT22;67776;52.012;4.736;2023-12-20T04:01:50;7.39;90.80
78490;DHT22;67776;52.012;4.736;2023-12-20T04:04:16;7.39;91.10
78490;DHT22;67776;52.012;4.736;2023-12-20T04:06:41;7.30;91.63
78490;DHT22;67776;52.012;4.736;2023-12-20T04:09:06;7.29;90.85
78490;DHT22;67776;52.012;4.736;2023-12-20T04:11:34;7.50;90.14
78490;DHT22;67776;52.012;4.736;2023-12-20T04:13:59;7.45;90.91
78490;DHT22;67776;52.012;4.736;2023-12-20T04:16:26;7.50;90.55
78490;DHT22;67776;52.012;4.736;2023-12-20T04:18:51;7.55;90.31
78490;DHT22;67776;52.012;4.736;2023-12-20T04:21:17;7.55;91.41
78490;DHT22;67776;52.012;4.736;2023-12-20T04:23:43;7.59;90.49
78490;DHT22;67776;52.012;4.736;2023-12-20T04:26:08;7.56;90.70
78490;DHT22;67776;52.012;4.736;2023-12-20T04:28:34;7.46;91.94
78490;DHT22;67776;52.012;4.736;2023-12-20T04:30:59;7.49;91.45
78490;DHT22;67776;52.012;4.736;2023-12-20T04:33:24;7.45;91.98
78490;DHT22;67776;52.012;4.736;2023-12-20T04:35:49;7.45;91.69
78490;DHT22;67776;52.012;4.736;2023-12-20T04:38:15;7.43;91.56
78490;DHT22;67776;52.012;4.736;2023-12-20T04:40:40;7.39;91.58
78490;DHT22;67776;52.012;4.736;2023-12-20T04:43:07;7.39;91.88
78490;DHT22;67776;52.012;4.736;2023-12-20T04:45:32;7.36;91.66
78490;DHT22;67776;52.012;4.736;2023-12-20T04:47:58;7.30;92.09
78490;DHT22;67776;52.012;4.736;2023-12-20T04:50:23;7.33;91.40
78490;DHT22;67776;52.012;4.736;2023-12-20T04:52:48;7.33;91.38
78490;DHT22;67776;52.012;4.736;2023-12-20T04:55:14;7.23;91.71
78490;DHT22;67776;52.012;4.736;2023-12-20T04:57:39;7.26;91.31
78490;DHT22;67776;52.012;4.736;2023-12-20T05:00:05;7.25;91.36
78490;DHT22;67776;52.012;4.736;2023-12-20T05:02:31;7.30;90.66
78490;DHT22;67776;52.012;4.736;2023-12-20T05:04:56;7.22;91.31
78490;DHT22;67776;52.012;4.736;2023-12-20T05:07:21;7.32;90.80
78490;DHT22;67776;52.012;4.736;2023-12-20T05:09:47;7.22;91.44
78490;DHT22;67776;52.012;4.736;2023-12-20T05:12:12;7.28;91.10
78490;DHT22;67776;52.012;4.736;2023-12-20T05:14:37;7.33;91.30
78490;DHT22;67776;52.012;4.736;2023-12-20T05:17:03;7.28;91.41
78490;DHT22;67776;52.012;4.736;2023-12-20T05:19:28;7.25;91.41
78490;DHT22;67776;52.012;4.736;2023-12-20T05:21:54;7.29;90.94
78490;DHT22;67776;52.012;4.736;2023-12-20T05:24:19;7.36;90.80
78490;DHT22;67776;52.012;4.736;2023-12-20T05:26:44;7.35;90.98
78490;DHT22;67776;52.012;4.736;2023-12-20T05:29:10;7.33;91.45
78490;DHT22;67776;52.012;4.736;2023-12-20T05:31:35;7.38;90.95
78490;DHT22;67776;52.012;4.736;2023-12-20T05:34:00;7.43;91.18
78490;DHT22;67776;52.012;4.736;2023-12-20T05:36:26;7.52;90.76
78490;DHT22;67776;52.012;4.736;2023-12-20T05:38:51;7.52;91.34
78490;DHT22;67776;52.012;4.736;2023-12-20T05:41:16;7.53;91.00
78490;DHT22;67776;52.012;4.736;2023-12-20T05:43:41;7.47;91.53
78490;DHT22;67776;52.012;4.736;2023-12-20T05:46:07;7.57;91.23
78490;DHT22;67776;52.012;4.736;2023-12-20T05:48:34;7.57;91.38
78490;DHT22;67776;52.012;4.736;2023-12-20T05:51:00;7.55;91.33
78490;DHT22;67776;52.012;4.736;2023-12-20T05:53:25;7.60;91.36
78490;DHT22;67776;52.012;4.736;2023-12-20T05:55:50;7.60;91.82
78490;DHT22;67776;52.012;4.736;2023-12-20T05:58:16;7.64;91.11
78490;DHT22;67776;52.012;4.736;2023-12-20T06:00:41;7.53;91.89
78490;DHT22;67776;52.012;4.736;2023-12-20T06:03:06;7.53;91.87
78490;DHT22;67776;52.012;4.736;2023-12-20T06:05:31;7.67;91.23
78490;DHT22;67776;52.012;4.736;2023-12-20T06:07:57;7.64;91.31
78490;DHT22;67776;52.012;4.736;2023-12-20T06:10:26;7.66;91.50
78490;DHT22;67776;52.012;4.736;2023-12-20T06:12:52;7.73;90.93
78490;DHT22;67776;52.012;4.736;2023-12-20T06:15:18;7.70;91.48
78490;DHT22;67776;52.012;4.736;2023-12-20T06:17:43;7.70;91.29
78490;DHT22;67776;52.012;4.736;2023-12-20T06:20:09;7.81;90.41
78490;DHT22;67776;52.012;4.736;2023-12-20T06:22:35;7.90;90.11
78490;DHT22;67776;52.012;4.736;2023-12-20T06:25:02;7.84;90.69
78490;DHT22;67776;52.012;4.736;2023-12-20T06:27:28;7.81;91.10
78490;DHT22;67776;52.012;4.736;2023-12-20T06:29:53;7.84;90.81
78490;DHT22;67776;52.012;4.736;2023-12-20T06:32:18;7.84;90.69
78490;DHT22;67776;52.012;4.736;2023-12-20T06:34:44;7.84;90.97
78490;DHT22;67776;52.012;4.736;2023-12-20T06:37:10;7.90;90.59
78490;DHT22;67776;52.012;4.736;2023-12-20T06:39:35;7.85;90.62
78490;DHT22;67776;52.012;4.736;2023-12-20T06:42:00;7.88;90.42
78490;DHT22;67776;52.012;4.736;2023-12-20T06:44:26;7.85;90.99
78490;DHT22;67776;52.012;4.736;2023-12-20T06:46:51;7.91;90.48
78490;DHT22;67776;52.012;4.736;2023-12-20T06:49:17;7.90;90.76
78490;DHT22;67776;52.012;4.736;2023-12-20T06:51:43;7.87;91.03
78490;DHT22;67776;52.012;4.736;2023-12-20T06:54:08;7.98;90.41
78490;DHT22;67776;52.012;4.736;2023-12-20T06:56:34;7.95;90.38
78490;DHT22;67776;52.012;4.736;2023-12-20T06:58:59;8.01;90.23
78490;DHT22;67776;52.012;4.736;2023-12-20T07:01:24;7.91;91.07
78490;DHT22;67776;52.012;4.736;2023-12-20T07:03:50;7.95;91.09
78490;DHT22;67776;52.012;4.736;2023-12-20T07:06:15;8.01;90.76
78490;DHT22;67776;52.012;4.736;2023-12-20T07:08:41;7.95;90.80
78490;DHT22;67776;52.012;4.736;2023-12-20T07:11:06;7.91;91.18
78490;DHT22;67776;52.012;4.736;2023-12-20T07:13:32;7.91;91.02
78490;DHT22;67776;52.012;4.736;2023-12-20T07:15:57;7.99;90.55
78490;DHT22;67776;52.012;4.736;2023-12-20T07:18:22;7.95;91.03
78490;DHT22;67776;52.012;4.736;2023-12-20T07:20:48;7.98;90.73
78490;DHT22;67776;52.012;4.736;2023-12-20T07:23:13;7.92;90.70
78490;DHT22;67776;52.012;4.736;2023-12-20T07:25:38;7.85;91.24
78490;DHT22;67776;52.012;4.736;2023-12-20T07:28:04;7.85;91.21
78490;DHT22;67776;52.012;4.736;2023-12-20T07:30:30;7.77;91.37
78490;DHT22;67776;52.012;4.736;2023-12-20T07:32:55;7.66;92.02
78490;DHT22;67776;52.012;4.736;2023-12-20T07:35:20;7.67;91.88
78490;DHT22;67776;52.012;4.736;2023-12-20T07:37:46;7.63;92.52
78490;DHT22;67776;52.012;4.736;2023-12-20T07:40:11;7.67;91.94
78490;DHT22;67776;52.012;4.736;2023-12-20T07:42:36;7.66;92.13
78490;DHT22;67776;52.012;4.736;2023-12-20T07:45:03;7.67;91.98
78490;DHT22;67776;52.012;4.736;2023-12-20T07:47:28;7.71;92.05
78490;DHT22;67776;52.012;4.736;2023-12-20T07:49:53;7.74;91.88
78490;DHT22;67776;52.012;4.736;2023-12-20T07:52:19;7.73;92.44
78490;DHT22;67776;52.012;4.736;2023-12-20T07:54:45;7.77;92.15
78490;DHT22;67776;52.012;4.736;2023-12-20T07:57:11;7.81;91.36
78490;DHT22;67776;52.012;4.736;2023-12-20T07:59:36;7.80;91.62
78490;DHT22;67776;52.012;4.736;2023-12-20T08:02:01;7.84;91.58
78490;DHT22;67776;52.012;4.736;2023-12-20T08:04:27;7.90;91.28
78490;DHT22;67776;52.012;4.736;2023-12-20T08:06:52;7.92;90.82
78490;DHT22;67776;52.012;4.736;2023-12-20T08:09:17;7.97;91.23
78490;DHT22;67776;52.012;4.736;2023-12-20T08:11:47;8.01;90.77
78490;DHT22;67776;52.012;4.736;2023-12-20T08:14:12;8.04;91.58
78490;DHT22;67776;52.012;4.736;2023-12-20T08:16:38;8.01;91.16
78490;DHT22;67776;52.012;4.736;2023-12-20T08:19:03;8.09;90.74
78490;DHT22;67776;52.012;4.736;2023-12-20T08:21:28;8.04;91.41
78490;DHT22;67776;52.012;4.736;2023-12-20T08:23:53;8.08;91.27
78490;DHT22;67776;52.012;4.736;2023-12-20T08:26:19;8.16;90.87
78490;DHT22;67776;52.012;4.736;2023-12-20T08:28:46;8.22;90.19
78490;DHT22;67776;52.012;4.736;2023-12-20T08:31:16;8.19;90.94
78490;DHT22;67776;52.012;4.736;2023-12-20T08:33:44;8.25;90.98
78490;DHT22;67776;52.012;4.736;2023-12-20T08:36:10;8.30;91.25
78490;DHT22;67776;52.012;4.736;2023-12-20T08:38:36;8.24;91.15
78490;DHT22;67776;52.012;4.736;2023-12-20T08:41:01;8.28;91.09
78490;DHT22;67776;52.012;4.736;2023-12-20T08:43:28;8.30;90.67
78490;DHT22;67776;52.012;4.736;2023-12-20T08:45:53;8.32;90.55
78490;DHT22;67776;52.012;4.736;2023-12-20T08:48:19;8.28;91.70
78490;DHT22;67776;52.012;4.736;2023-12-20T08:50:44;8.36;90.24
78490;DHT22;67776;52.012;4.736;2023-12-20T08:53:09;8.39;90.05
78490;DHT22;67776;52.012;4.736;2023-12-20T08:55:35;8.43;90.27
78490;DHT22;67776;52.012;4.736;2023-12-20T08:58:00;8.47;90.29
78490;DHT22;67776;52.012;4.736;2023-12-20T09:00:25;8.49;89.76
78490;DHT22;67776;52.012;4.736;2023-12-20T09:02:53;8.50;89.63
78490;DHT22;67776;52.012;4.736;2023-12-20T09:05:18;8.56;89.09
78490;DHT22;67776;52.012;4.736;2023-12-20T09:07:44;8.60;89.26
78490;DHT22;67776;52.012;4.736;2023-12-20T09:10:09;8.64;89.04
78490;DHT22;67776;52.012;4.736;2023-12-20T09:12:34;8.63;90.06
78490;DHT22;67776;52.012;4.736;2023-12-20T09:15:00;8.59;89.96
78490;DHT22;67776;52.012;4.736;2023-12-20T09:17:27;8.64;89.39
78490;DHT22;67776;52.012;4.736;2023-12-20T09:19:53;8.64;89.95
78490;DHT22;67776;52.012;4.736;2023-12-20T09:22:19;8.70;89.35
78490;DHT22;67776;52.012;4.736;2023-12-20T09:24:44;8.71;89.59
78490;DHT22;67776;52.012;4.736;2023-12-20T09:27:10;8.74;89.43
78490;DHT22;67776;52.012;4.736;2023-12-20T09:29:35;8.74;89.49
78490;DHT22;67776;52.012;4.736;2023-12-20T09:32:00;8.81;89.08
78490;DHT22;67776;52.012;4.736;2023-12-20T09:34:26;8.84;89.05
78490;DHT22;67776;52.012;4.736;2023-12-20T09:36:52;8.88;88.66
78490;DHT22;67776;52.012;4.736;2023-12-20T09:39:18;8.84;89.15
78490;DHT22;67776;52.012;4.736;2023-12-20T09:41:51;8.80;90.10
78490;DHT22;67776;52.012;4.736;2023-12-20T09:44:19;8.84;89.27
78490;DHT22;67776;52.012;4.736;2023-12-20T09:46:45;8.94;89.44
78490;DHT22;67776;52.012;4.736;2023-12-20T09:49:15;8.94;89.09
78490;DHT22;67776;52.012;4.736;2023-12-20T09:51:42;8.94;89.20
78490;DHT22;67776;52.012;4.736;2023-12-20T09:54:08;8.98;89.61
78490;DHT22;67776;52.012;4.736;2023-12-20T09:56:34;9.02;89.30
78490;DHT22;67776;52.012;4.736;2023-12-20T09:59:00;9.00;89.95
78490;DHT22;67776;52.012;4.736;2023-12-20T10:01:25;8.98;89.97
78490;DHT22;67776;52.012;4.736;2023-12-20T10:03:54;9.08;89.41
78490;DHT22;67776;52.012;4.736;2023-12-20T10:06:20;9.10;88.74
78490;DHT22;67776;52.012;4.736;2023-12-20T10:08:46;9.15;88.85
78490;DHT22;67776;52.012;4.736;2023-12-20T10:11:11;9.12;88.74
78490;DHT22;67776;52.012;4.736;2023-12-20T10:13:40;9.14;88.61
78490;DHT22;67776;52.012;4.736;2023-12-20T10:16:06;9.19;88.41
78490;DHT22;67776;52.012;4.736;2023-12-20T10:18:33;9.21;88.32
78490;DHT22;67776;52.012;4.736;2023-12-20T10:20:59;9.22;88.79
78490;DHT22;67776;52.012;4.736;2023-12-20T10:23:25;9.28;88.34
78490;DHT22;67776;52.012;4.736;2023-12-20T10:25:58;9.26;88.26
78490;DHT22;67776;52.012;4.736;2023-12-20T10:28:23;9.35;88.16
78490;DHT22;67776;52.012;4.736;2023-12-20T10:30:53;9.29;87.64
78490;DHT22;67776;52.012;4.736;2023-12-20T10:33:27;9.35;86.73
78490;DHT22;67776;52.012;4.736;2023-12-20T10:35:54;9.28;87.89
78490;DHT22;67776;52.012;4.736;2023-12-20T10:38:19;9.28;87.76
78490;DHT22;67776;52.012;4.736;2023-12-20T10:40:45;9.33;87.47
78490;DHT22;67776;52.012;4.736;2023-12-20T10:43:11;9.39;87.75
78490;DHT22;67776;52.012;4.736;2023-12-20T10:45:37;9.32;88.60
78490;DHT22;67776;52.012;4.736;2023-12-20T10:48:03;9.35;87.58
78490;DHT22;67776;52.012;4.736;2023-12-20T10:50:30;9.35;87.51
78490;DHT22;67776;52.012;4.736;2023-12-20T10:52:57;9.36;87.91
78490;DHT22;67776;52.012;4.736;2023-12-20T10:55:23;9.38;88.04
78490;DHT22;67776;52.012;4.736;2023-12-20T10:57:53;9.35;88.86
78490;DHT22;67776;52.012;4.736;2023-12-20T11:00:20;9.40;87.82
78490;DHT22;67776;52.012;4.736;2023-12-20T11:02:49;9.46;87.71
78490;DHT22;67776;52.012;4.736;2023-12-20T11:05:25;9.49;87.99
78490;DHT22;67776;52.012;4.736;2023-12-20T11:08:09;9.49;88.19
78490;DHT22;67776;52.012;4.736;2023-12-20T11:11:00;9.49;87.78
78490;DHT22;67776;52.012;4.736;2023-12-20T11:16:19;9.43;89.19
78490;DHT22;67776;52.012;4.736;2023-12-20T11:18:45;9.47;88.30
78490;DHT22;67776;52.012;4.736;2023-12-20T11:21:10;9.42;88.52
78490;DHT22;67776;52.012;4.736;2023-12-20T11:23:36;9.49;87.54
78490;DHT22;67776;52.012;4.736;2023-12-20T11:26:02;9.44;89.34
78490;DHT22;67776;52.012;4.736;2023-12-20T11:28:28;9.54;87.53
78490;DHT22;67776;52.012;4.736;2023-12-20T11:30:56;9.56;88.34
78490;DHT22;67776;52.012;4.736;2023-12-20T11:33:44;9.53;88.52
78490;DHT22;67776;52.012;4.736;2023-12-20T11:36:15;9.61;87.72
78490;DHT22;67776;52.012;4.736;2023-12-20T11:38:56;9.60;87.12
78490;DHT22;67776;52.012;4.736;2023-12-20T11:41:23;9.67;86.87
78490;DHT22;67776;52.012;4.736;2023-12-20T11:43:52;9.67;88.41
78490;DHT22;67776;52.012;4.736;2023-12-20T11:46:18;9.71;87.24
78490;DHT22;67776;52.012;4.736;2023-12-20T11:48:44;9.61;87.38
78490;DHT22;67776;52.012;4.736;2023-12-20T11:51:13;9.63;88.07
78490;DHT22;67776;52.012;4.736;2023-12-20T11:53:39;9.64;87.51
78490;DHT22;67776;52.012;4.736;2023-12-20T11:56:08;9.63;87.44
78490;DHT22;67776;52.012;4.736;2023-12-20T11:58:34;9.57;87.96
78490;DHT22;67776;52.012;4.736;2023-12-20T12:00:59;9.60;87.76
78490;DHT22;67776;52.012;4.736;2023-12-20T12:03:25;9.64;87.79
78490;DHT22;67776;52.012;4.736;2023-12-20T12:05:50;9.54;87.97
78490;DHT22;67776;52.012;4.736;2023-12-20T12:08:19;9.57;87.74
78490;DHT22;67776;52.012;4.736;2023-12-20T12:10:45;9.61;87.02
78490;DHT22;67776;52.012;4.736;2023-12-20T12:13:10;9.67;87.28
78490;DHT22;67776;52.012;4.736;2023-12-20T12:15:37;9.57;88.23
78490;DHT22;67776;52.012;4.736;2023-12-20T12:18:03;9.64;87.86
78490;DHT22;67776;52.012;4.736;2023-12-20T12:20:29;9.69;86.86
78490;DHT22;67776;52.012;4.736;2023-12-20T12:23:04;9.70;87.04
78490;DHT22;67776;52.012;4.736;2023-12-20T12:25:32;9.69;87.81
78490;DHT22;67776;52.012;4.736;2023-12-20T12:28:00;9.69;87.06
78490;DHT22;67776;52.012;4.736;2023-12-20T12:30:27;9.73;86.60
78490;DHT22;67776;52.012;4.736;2023-12-20T12:32:52;9.76;87.75
78490;DHT22;67776;52.012;4.736;2023-12-20T12:35:18;9.83;86.64
78490;DHT22;67776;52.012;4.736;2023-12-20T12:37:44;9.84;86.15
78490;DHT22;67776;52.012;4.736;2023-12-20T12:40:10;9.88;85.77
78490;DHT22;67776;52.012;4.736;2023-12-20T12:42:37;9.88;85.84
78490;DHT22;67776;52.012;4.736;2023-12-20T12:45:03;9.94;85.43
78490;DHT22;67776;52.012;4.736;2023-12-20T12:47:28;9.98;85.49
78490;DHT22;67776;52.012;4.736;2023-12-20T12:49:54;9.91;85.39
78490;DHT22;67776;52.012;4.736;2023-12-20T12:52:19;9.90;85.69
78490;DHT22;67776;52.012;4.736;2023-12-20T12:54:45;9.84;86.17
78490;DHT22;67776;52.012;4.736;2023-12-20T12:57:11;9.78;86.13
78490;DHT22;67776;52.012;4.736;2023-12-20T12:59:37;9.84;85.60
78490;DHT22;67776;52.012;4.736;2023-12-20T13:02:02;9.77;85.69
78490;DHT22;67776;52.012;4.736;2023-12-20T13:04:27;9.74;86.14
78490;DHT22;67776;52.012;4.736;2023-12-20T13:06:53;9.74;86.88
78490;DHT22;67776;52.012;4.736;2023-12-20T13:09:18;9.64;86.72
78490;DHT22;67776;52.012;4.736;2023-12-20T13:11:44;9.66;87.10
78490;DHT22;67776;52.012;4.736;2023-12-20T13:14:09;9.64;87.29
78490;DHT22;67776;52.012;4.736;2023-12-20T13:16:40;9.67;87.14
78490;DHT22;67776;52.012;4.736;2023-12-20T13:19:05;9.67;87.24
78490;DHT22;67776;52.012;4.736;2023-12-20T13:21:31;9.73;86.79
78490;DHT22;67776;52.012;4.736;2023-12-20T13:23:56;9.76;87.23
78490;DHT22;67776;52.012;4.736;2023-12-20T13:26:22;9.73;87.34
78490;DHT22;67776;52.012;4.736;2023-12-20T13:28:47;9.64;88.27
78490;DHT22;67776;52.012;4.736;2023-12-20T13:31:13;9.66;87.87
78490;DHT22;67776;52.012;4.736;2023-12-20T13:33:39;9.66;88.45
78490;DHT22;67776;52.012;4.736;2023-12-20T13:36:06;9.66;88.43
78490;DHT22;67776;52.012;4.736;2023-12-20T13:38:31;9.61;88.33
78490;DHT22;67776;52.012;4.736;2023-12-20T13:40:56;9.64;88.38
78490;DHT22;67776;52.012;4.736;2023-12-20T13:43:23;9.60;88.75
78490;DHT22;67776;52.012;4.736;2023-12-20T13:45:49;9.50;89.73
78490;DHT22;67776;52.012;4.736;2023-12-20T13:48:15;9.47;89.57
78490;DHT22;67776;52.012;4.736;2023-12-20T13:50:40;9.42;89.38
78490;DHT22;67776;52.012;4.736;2023-12-20T13:53:05;9.44;89.71
78490;DHT22;67776;52.012;4.736;2023-12-20T13:55:31;9.49;89.14
78490;DHT22;67776;52.012;4.736;2023-12-20T13:57:56;9.47;89.44
78490;DHT22;67776;52.012;4.736;2023-12-20T14:00:22;9.43;89.63
78490;DHT22;67776;52.012;4.736;2023-12-20T14:02:48;9.42;89.79
78490;DHT22;67776;52.012;4.736;2023-12-20T14:05:14;9.36;90.01
78490;DHT22;67776;52.012;4.736;2023-12-20T14:07:43;9.32;90.44
78490;DHT22;67776;52.012;4.736;2023-12-20T14:10:11;9.30;90.16
78490;DHT22;67776;52.012;4.736;2023-12-20T14:12:36;9.29;90.64
78490;DHT22;67776;52.012;4.736;2023-12-20T14:15:03;9.39;90.11
78490;DHT22;67776;52.012;4.736;2023-12-20T14:17:28;9.40;90.10
78490;DHT22;67776;52.012;4.736;2023-12-20T14:19:54;9.38;90.06
78490;DHT22;67776;52.012;4.736;2023-12-20T14:22:19;9.38;90.36
78490;DHT22;67776;52.012;4.736;2023-12-20T14:24:45;9.35;90.14
78490;DHT22;67776;52.012;4.736;2023-12-20T14:27:11;9.35;90.46
78490;DHT22;67776;52.012;4.736;2023-12-20T14:29:36;9.33;90.47
78490;DHT22;67776;52.012;4.736;2023-12-20T14:32:03;9.30;90.48
78490;DHT22;67776;52.012;4.736;2023-12-20T14:34:28;9.26;91.24
78490;DHT22;67776;52.012;4.736;2023-12-20T14:36:54;9.26;91.24
78490;DHT22;67776;52.012;4.736;2023-12-20T14:39:19;9.30;91.17
78490;DHT22;67776;52.012;4.736;2023-12-20T14:41:45;9.29;91.63
78490;DHT22;67776;52.012;4.736;2023-12-20T14:44:10;9.36;90.73
78490;DHT22;67776;52.012;4.736;2023-12-20T14:46:35;9.39;91.07
78490;DHT22;67776;52.012;4.736;2023-12-20T14:49:01;9.33;91.31
78490;DHT22;67776;52.012;4.736;2023-12-20T14:51:28;9.33;91.21
78490;DHT22;67776;52.012;4.736;2023-12-20T14:53:53;9.32;91.49
78490;DHT22;67776;52.012;4.736;2023-12-20T14:56:18;9.33;91.62
78490;DHT22;67776;52.012;4.736;2023-12-20T14:58:45;9.26;91.71
78490;DHT22;67776;52.012;4.736;2023-12-20T15:01:11;9.18;92.50
78490;DHT22;67776;52.012;4.736;2023-12-20T15:03:36;9.22;92.35
78490;DHT22;67776;52.012;4.736;2023-12-20T15:06:02;9.19;92.26
78490;DHT22;67776;52.012;4.736;2023-12-20T15:08:27;9.19;92.50
78490;DHT22;67776;52.012;4.736;2023-12-20T15:10:52;9.15;92.60
78490;DHT22;67776;52.012;4.736;2023-12-20T15:13:18;9.15;92.28
78490;DHT22;67776;52.012;4.736;2023-12-20T15:15:43;9.14;92.31
78490;DHT22;67776;52.012;4.736;2023-12-20T15:18:09;9.16;92.29
78490;DHT22;67776;52.012;4.736;2023-12-20T15:20:34;9.11;92.69
78490;DHT22;67776;52.012;4.736;2023-12-20T15:23:02;9.14;92.77
78490;DHT22;67776;52.012;4.736;2023-12-20T15:25:31;9.12;92.47
78490;DHT22;67776;52.012;4.736;2023-12-20T15:27:57;9.12;92.57
78490;DHT22;67776;52.012;4.736;2023-12-20T15:30:22;9.12;92.57
78490;DHT22;67776;52.012;4.736;2023-12-20T15:32:49;9.15;92.83
78490;DHT22;67776;52.012;4.736;2023-12-20T15:35:15;9.11;93.24
78490;DHT22;67776;52.012;4.736;2023-12-20T15:37:40;9.07;93.58
78490;DHT22;67776;52.012;4.736;2023-12-20T15:40:08;9.08;93.47